createdAt,value
2023-04-12T00:01:17.984Z,97771.99
2023-04-12T00:03:54.745Z,97769.92
2023-04-12T00:06:32.641Z,97772.14
2023-04-12T00:09:05.209Z,97771.83
2023-04-12T00:11:38.702Z,97775.16
2023-04-12T00:14:13.367Z,97774.67
2023-04-12T00:16:50.467Z,97776.45
2023-04-12T00:19:25.927Z,97777.20
2023-04-12T00:21:58.074Z,97777.69
2023-04-12T00:24:30.018Z,97774.92
2023-04-12T00:27:02.747Z,97773.08
2023-04-12T00:29:35.086Z,97773.41
2023-04-12T00:32:08.640Z,97768.95
2023-04-12T00:34:43.051Z,97774.69
2023-04-12T00:37:15.239Z,97771.95
2023-04-12T00:39:47.269Z,97769.20
2023-04-12T00:42:21.998Z,97766.69
2023-04-12T00:44:54.027Z,97767.48
2023-04-12T00:47:26.625Z,97765.40
2023-04-12T00:50:00.275Z,97765.48
2023-04-12T00:52:34.510Z,97764.28
2023-04-12T00:55:09.835Z,97764.41
2023-04-12T00:57:42.725Z,97761.58
2023-04-12T01:00:17.193Z,97764.02
2023-04-12T01:02:50.949Z,97763.55
2023-04-12T01:05:27.167Z,97764.19
2023-04-12T01:08:12.549Z,97759.65
2023-04-12T01:10:53.824Z,97757.59
2023-04-12T01:13:30.853Z,97758.64
2023-04-12T01:16:09.138Z,97760.23
2023-04-12T01:18:52.129Z,97758.02
2023-04-12T01:21:35.725Z,97758.09
2023-04-12T01:24:26.680Z,97758.71
2023-04-12T01:27:02.767Z,97759.04
2023-04-12T01:29:35.555Z,97761.02
2023-04-12T01:32:11.661Z,97758.29
2023-04-12T01:34:45.730Z,97762.20
2023-04-12T01:37:19.969Z,97760.89
2023-04-12T01:39:52.542Z,97761.07
2023-04-12T01:42:24.674Z,97765.41
2023-04-12T01:44:56.725Z,97759.45
2023-04-12T01:47:29.169Z,97760.59
2023-04-12T01:50:11.256Z,97760.49
2023-04-12T01:52:49.650Z,97757.24
2023-04-12T01:55:25.493Z,97756.27
2023-04-12T01:58:00.489Z,97756.17
2023-04-12T02:00:35.677Z,97754.73
2023-04-12T02:03:12.789Z,97752.01
2023-04-12T02:05:48.175Z,97752.98
2023-04-12T02:08:27.128Z,97749.77
2023-04-12T02:10:59.196Z,97743.88
2023-04-12T02:13:33.650Z,97739.53
2023-04-12T02:16:08.037Z,97741.45
2023-04-12T02:18:41.610Z,97738.23
2023-04-12T02:21:14.480Z,97736.45
2023-04-12T02:23:47.120Z,97733.52
2023-04-12T02:26:19.306Z,97731.34
2023-04-12T02:28:52.692Z,97727.84
2023-04-12T02:31:28.166Z,97725.14
2023-04-12T02:34:02.038Z,97724.61
2023-04-12T02:36:35.313Z,97726.70
2023-04-12T02:39:07.880Z,97730.73
2023-04-12T02:41:40.320Z,97731.89
2023-04-12T02:44:16.297Z,97730.14
2023-04-12T02:46:53.031Z,97731.70
2023-04-12T02:49:25.428Z,97729.76
2023-04-12T02:51:59.154Z,97732.38
2023-04-12T02:54:35.644Z,97736.86
2023-04-12T02:57:08.691Z,97734.70
2023-04-12T02:59:44.511Z,97735.77
2023-04-12T03:02:29.954Z,97735.02
2023-04-12T03:05:08.950Z,97733.65
2023-04-12T03:07:45.008Z,97734.01
2023-04-12T03:10:17.432Z,97734.20
2023-04-12T03:12:54.977Z,97733.38
2023-04-12T03:15:28.375Z,97733.88
2023-04-12T03:18:01.558Z,97732.55
2023-04-12T03:20:36.140Z,97733.41
2023-04-12T03:23:11.511Z,97730.41
2023-04-12T03:25:48.399Z,97729.30
2023-04-12T03:28:36.606Z,97729.71
2023-04-12T03:31:12.779Z,97732.98
2023-04-12T03:33:50.415Z,97730.16
2023-04-12T03:36:31.419Z,97733.70
2023-04-12T03:39:09.946Z,97734.23
2023-04-12T03:41:44.087Z,97730.56
2023-04-12T03:44:16.810Z,97733.30
2023-04-12T03:46:49.779Z,97733.89
2023-04-12T03:49:22.091Z,97735.25
2023-04-12T03:51:54.140Z,97735.55
2023-04-12T03:54:26.509Z,97737.32
2023-04-12T03:57:03.144Z,97737.20
2023-04-12T03:59:48.216Z,97734.67
2023-04-12T04:02:20.817Z,97734.10
2023-04-12T04:04:53.736Z,97733.59
2023-04-12T04:07:31.784Z,97733.68
2023-04-12T04:10:05.734Z,97735.84
2023-04-12T04:12:40.007Z,97731.48
2023-04-12T04:15:17.357Z,97733.88
2023-04-12T04:17:51.876Z,97731.61
2023-04-12T04:20:25.974Z,97733.66
2023-04-12T04:23:01.056Z,97735.44
2023-04-12T04:25:33.774Z,97738.45
2023-04-12T04:28:09.891Z,97732.68
2023-04-12T04:30:46.285Z,97728.10
2023-04-12T04:33:21.187Z,97724.77
2023-04-12T04:35:54.669Z,97726.40
2023-04-12T04:38:38.864Z,97727.45
2023-04-12T04:41:22.850Z,97731.63
2023-04-12T04:44:09.671Z,97738.71
2023-04-12T04:46:44.396Z,97737.63
2023-04-12T04:49:16.691Z,97737.11
2023-04-12T04:51:49.743Z,97738.01
2023-04-12T04:54:29.993Z,97737.25
2023-04-12T04:57:03.118Z,97741.20
2023-04-12T04:59:35.514Z,97741.50
2023-04-12T05:02:18.338Z,97747.86
2023-04-12T05:04:53.115Z,97746.95
2023-04-12T05:07:27.405Z,97746.05
2023-04-12T05:09:59.590Z,97747.00
2023-04-12T05:12:31.795Z,97749.32
2023-04-12T05:15:11.583Z,97751.86
2023-04-12T05:17:47.227Z,97744.27
2023-04-12T05:20:19.488Z,97746.69
2023-04-12T05:22:54.733Z,97747.83
2023-04-12T05:25:27.023Z,97750.17
2023-04-12T05:28:11.607Z,97753.35
2023-04-12T05:30:43.792Z,97753.38
2023-04-12T05:33:16.772Z,97758.59
2023-04-12T05:35:51.182Z,97753.38
2023-04-12T05:38:24.045Z,97751.49
2023-04-12T05:40:59.151Z,97757.07
2023-04-12T05:43:33.033Z,97760.23
2023-04-12T05:46:05.745Z,97759.81
2023-04-12T05:48:38.192Z,97759.40
2023-04-12T05:51:12.735Z,97759.77
2023-04-12T05:53:44.990Z,97751.60
2023-04-12T05:56:18.109Z,97749.85
2023-04-12T05:58:50.339Z,97749.29
2023-04-12T06:01:22.746Z,97753.59
2023-04-12T06:03:55.076Z,97751.45
2023-04-12T06:06:30.363Z,97749.76
2023-04-12T06:09:05.349Z,97753.15
2023-04-12T06:11:39.314Z,97754.02
2023-04-12T06:14:12.130Z,97753.83
2023-04-12T06:16:50.517Z,97754.59
2023-04-12T06:19:22.616Z,97760.08
2023-04-12T06:21:55.903Z,97759.89
2023-04-12T06:24:28.159Z,97761.40
2023-04-12T06:27:00.256Z,97759.46
2023-04-12T06:29:35.336Z,97757.36
2023-04-12T06:32:10.430Z,97758.59
2023-04-12T06:34:42.794Z,97754.37
2023-04-12T06:37:18.672Z,97752.85
2023-04-12T06:39:51.310Z,97747.44
2023-04-12T06:42:26.266Z,97741.35
2023-04-12T06:45:01.543Z,97740.25
2023-04-12T06:47:35.086Z,97743.14
2023-04-12T06:50:08.706Z,97739.09
2023-04-12T06:52:40.884Z,97736.52
2023-04-12T06:55:13.255Z,97735.20
2023-04-12T06:57:46.267Z,97736.08
2023-04-12T07:00:19.383Z,97732.34
2023-04-12T07:02:51.795Z,97733.52
2023-04-12T07:05:24.645Z,97736.79
2023-04-12T07:07:56.804Z,97739.34
2023-04-12T07:10:32.857Z,97737.84
2023-04-12T07:13:07.255Z,97738.70
2023-04-12T07:15:39.608Z,97741.52
2023-04-12T07:18:11.818Z,97739.47
2023-04-12T07:20:44.592Z,97741.23
2023-04-12T07:23:16.649Z,97740.67
2023-04-12T07:25:48.730Z,97736.27
2023-04-12T07:28:21.607Z,97733.46
2023-04-12T07:30:56.752Z,97728.13
2023-04-12T07:33:29.104Z,97728.05
2023-04-12T07:36:03.622Z,97725.71
2023-04-12T07:38:35.887Z,97724.89
2023-04-12T07:41:08.370Z,97724.09
2023-04-12T07:43:40.446Z,97716.76
2023-04-12T07:46:12.600Z,97720.77
2023-04-12T07:48:46.400Z,97720.16
2023-04-12T07:51:18.604Z,97725.59
2023-04-12T07:53:53.727Z,97720.94
2023-04-12T07:56:27.481Z,97725.61
2023-04-12T07:59:02.305Z,97720.38
2023-04-12T08:01:34.579Z,97718.58
2023-04-12T08:04:06.682Z,97716.11
2023-04-12T08:06:38.973Z,97715.38
2023-04-12T08:09:14.440Z,97720.70
2023-04-12T08:11:47.413Z,97718.39
2023-04-12T08:14:19.689Z,97715.41
2023-04-12T08:16:51.828Z,97716.89
2023-04-12T08:19:24.060Z,97714.30
2023-04-12T08:21:56.603Z,97713.91
2023-04-12T08:24:28.728Z,97705.42
2023-04-12T08:27:04.349Z,97707.98
2023-04-12T08:29:36.567Z,97707.72
2023-04-12T08:32:10.481Z,97707.25
2023-04-12T08:34:44.656Z,97706.77
2023-04-12T08:37:18.368Z,97705.38
2023-04-12T08:39:50.457Z,97697.04
2023-04-12T08:42:26.004Z,97694.95
2023-04-12T08:44:58.526Z,97694.86
2023-04-12T08:47:31.486Z,97693.87
2023-04-12T08:50:09.511Z,97694.39
2023-04-12T08:52:43.987Z,97691.29
2023-04-12T08:55:16.041Z,97681.44
2023-04-12T08:57:49.281Z,97674.88
2023-04-12T09:00:23.285Z,97673.48
2023-04-12T09:02:55.976Z,97672.31
2023-04-12T09:05:32.848Z,97672.88
2023-04-12T09:08:05.401Z,97675.55
2023-04-12T09:10:39.294Z,97675.77
2023-04-12T09:13:11.862Z,97674.89
2023-04-12T09:15:52.464Z,97674.41
2023-04-12T09:18:24.671Z,97668.74
2023-04-12T09:21:09.282Z,97668.02
2023-04-12T09:23:41.428Z,97666.12
2023-04-12T09:26:30.330Z,97662.11
2023-04-12T09:29:02.645Z,97656.23
2023-04-12T09:31:37.256Z,97646.30
2023-04-12T09:34:11.066Z,97640.62
2023-04-12T09:36:44.031Z,97645.36
2023-04-12T09:39:16.849Z,97652.11
2023-04-12T09:41:48.996Z,97646.01
2023-04-12T09:44:32.100Z,97645.58
2023-04-12T09:47:05.851Z,97630.63
2023-04-12T09:49:43.194Z,97627.84
2023-04-12T09:52:16.342Z,97619.56
2023-04-12T09:54:49.544Z,97618.52
2023-04-12T09:57:25.067Z,97611.82
2023-04-12T10:00:05.556Z,97612.95
2023-04-12T10:02:47.419Z,97608.06
2023-04-12T10:05:26.375Z,97613.80
2023-04-12T10:07:59.421Z,97615.33
2023-04-12T10:10:35.238Z,97611.52
2023-04-12T10:13:11.065Z,97603.75
2023-04-12T10:15:46.674Z,97597.35
2023-04-12T10:18:20.694Z,97597.02
2023-04-12T10:20:53.424Z,97587.86
2023-04-12T10:23:26.989Z,97565.73
2023-04-12T10:26:00.098Z,97571.05
2023-04-12T10:28:33.215Z,97590.70
2023-04-12T10:31:31.419Z,97594.16
2023-04-12T10:34:07.048Z,97594.22
2023-04-12T10:36:56.997Z,97587.84
2023-04-12T10:39:41.085Z,97585.69
2023-04-12T10:42:23.202Z,97586.15
2023-04-12T10:44:58.111Z,97579.27
2023-04-12T10:48:03.940Z,97575.50
2023-04-12T10:50:36.420Z,97556.82
2023-04-12T10:53:26.314Z,97560.23
2023-04-12T10:55:58.573Z,97544.52
2023-04-12T10:58:59.014Z,97524.83
2023-04-12T11:01:36.742Z,97535.24
2023-04-12T11:04:14.055Z,97541.11
2023-04-12T11:07:02.999Z,97531.20
2023-04-12T11:09:45.900Z,97534.63
2023-04-12T11:12:30.307Z,97541.39
2023-04-12T11:15:06.367Z,97538.41
2023-04-12T11:17:58.241Z,97531.27
2023-04-12T11:20:30.909Z,97519.38
2023-04-12T11:23:11.248Z,97485.39
2023-04-12T11:25:45.182Z,97487.88
2023-04-12T11:28:28.862Z,97482.89
2023-04-12T11:31:04.305Z,97472.02
2023-04-12T11:33:41.432Z,97469.18
2023-04-12T11:36:15.127Z,97475.75
2023-04-12T11:38:50.413Z,97454.98
2023-04-12T11:41:22.701Z,97436.58
2023-04-12T11:43:55.420Z,97428.08
2023-04-12T11:46:35.721Z,97430.00
2023-04-12T11:49:10.912Z,97421.45
2023-04-12T11:51:43.599Z,97431.30
2023-04-12T11:54:16.831Z,97440.04
2023-04-12T11:56:50.379Z,97441.13
2023-04-12T11:59:22.737Z,97440.27
2023-04-12T12:01:55.360Z,97436.77
2023-04-12T12:04:29.108Z,97430.11
2023-04-12T12:07:04.981Z,97426.98
2023-04-12T12:09:40.300Z,97430.17
2023-04-12T12:12:13.905Z,97422.05
2023-04-12T12:14:52.156Z,97415.41
2023-04-12T12:17:24.467Z,97411.50
2023-04-12T12:20:01.549Z,97412.05
2023-04-12T12:22:34.020Z,97403.02
2023-04-12T12:25:07.045Z,97396.96
2023-04-12T12:27:40.894Z,97381.13
2023-04-12T12:30:16.991Z,97380.17
2023-04-12T12:32:53.107Z,97373.73
2023-04-12T12:35:28.894Z,97371.16
2023-04-12T12:38:00.984Z,97373.20
2023-04-12T12:40:36.600Z,97377.70
2023-04-12T12:43:09.064Z,97370.50
2023-04-12T12:45:44.742Z,97353.66
2023-04-12T12:48:19.555Z,97351.30
2023-04-12T12:50:51.837Z,97326.18
2023-04-12T12:53:24.607Z,97316.92
2023-04-12T12:55:57.747Z,97314.08
2023-04-12T12:58:32.152Z,97308.86
2023-04-12T13:01:04.393Z,97301.00
2023-04-12T13:03:39.043Z,97289.58
2023-04-12T13:06:11.965Z,97258.00
2023-04-12T13:08:44.128Z,97248.22
2023-04-12T13:11:17.913Z,97250.34
2023-04-12T13:13:50.654Z,97238.19
2023-04-12T13:16:24.594Z,97246.98
2023-04-12T13:18:58.545Z,97255.33
2023-04-12T13:21:31.715Z,97232.79
2023-04-12T13:24:03.788Z,97244.98
2023-04-12T13:26:36.149Z,97238.41
2023-04-12T13:29:08.239Z,97231.85
2023-04-12T13:31:40.368Z,97234.77
2023-04-12T13:34:12.714Z,97236.88
2023-04-12T13:36:44.895Z,97238.25
2023-04-12T13:39:17.359Z,97238.39
2023-04-12T13:41:51.776Z,97238.36
2023-04-12T13:44:23.934Z,97234.63
2023-04-12T13:46:57.093Z,97239.92
2023-04-12T13:49:29.540Z,97238.40
2023-04-12T13:52:03.154Z,97235.14
2023-04-12T13:54:36.047Z,97237.04
2023-04-12T13:57:08.600Z,97235.75
2023-04-12T13:59:41.138Z,97236.09
2023-04-12T14:02:13.266Z,97236.27
2023-04-12T14:04:55.213Z,97229.55
2023-04-12T14:07:29.530Z,97238.17
2023-04-12T14:10:02.019Z,97233.72
2023-04-12T14:12:34.185Z,97233.77
2023-04-12T14:15:08.055Z,97229.50
2023-04-12T14:17:40.642Z,97235.71
2023-04-12T14:20:14.065Z,97234.02
2023-04-12T14:22:46.183Z,97224.17
2023-04-12T14:25:18.353Z,97231.75
2023-04-12T14:27:50.609Z,97225.76
2023-04-12T14:30:22.850Z,97225.45
2023-04-12T14:32:55.133Z,97220.66
2023-04-12T14:35:27.386Z,97220.98
2023-04-12T14:37:59.403Z,97221.39
2023-04-12T14:40:31.706Z,97213.76
2023-04-12T14:43:04.032Z,97205.92
2023-04-12T14:45:38.146Z,97210.31
2023-04-12T14:48:10.269Z,97210.63
2023-04-12T14:50:42.565Z,97213.36
2023-04-12T14:53:16.394Z,97212.50
2023-04-12T14:55:49.081Z,97210.30
2023-04-12T14:58:23.567Z,97211.61
2023-04-12T15:00:55.572Z,97202.39
2023-04-12T15:03:30.009Z,97200.60
2023-04-12T15:06:04.911Z,97190.61
2023-04-12T15:08:41.485Z,97184.27
2023-04-12T15:11:14.463Z,97177.83
2023-04-12T15:13:49.865Z,97174.55
2023-04-12T15:16:24.541Z,97176.52
2023-04-12T15:18:57.539Z,97165.29
2023-04-12T15:21:31.357Z,97157.23
2023-04-12T15:24:03.479Z,97160.67
2023-04-12T15:26:37.123Z,97158.95
2023-04-12T15:29:10.676Z,97151.92
2023-04-12T15:31:42.876Z,97142.33
2023-04-12T15:34:15.448Z,97126.88
2023-04-12T15:36:47.713Z,97125.15
2023-04-12T15:39:20.055Z,97128.94
2023-04-12T15:41:52.410Z,97135.09
2023-04-12T15:44:30.138Z,97143.45
2023-04-12T15:47:11.116Z,97139.80
2023-04-12T15:49:44.134Z,97140.10
2023-04-12T15:52:16.822Z,97142.64
2023-04-12T15:54:48.984Z,97150.80
2023-04-12T15:57:24.375Z,97153.91
2023-04-12T15:59:59.404Z,97148.48
2023-04-12T16:02:31.478Z,97149.06
2023-04-12T16:05:07.669Z,97149.27
2023-04-12T16:07:40.794Z,97146.95
2023-04-12T16:10:13.700Z,97148.64
2023-04-12T16:12:49.621Z,97149.91
2023-04-12T16:15:23.227Z,97151.90
2023-04-12T16:17:56.329Z,97147.84
2023-04-12T16:20:31.943Z,97138.08
2023-04-12T16:23:05.439Z,97130.11
2023-04-12T16:25:37.821Z,97130.52
2023-04-12T16:28:12.853Z,97125.41
2023-04-12T16:30:47.870Z,97122.08
2023-04-12T16:33:20.121Z,97120.48
2023-04-12T16:35:54.437Z,97117.52
2023-04-12T16:38:26.571Z,97122.62
2023-04-12T16:40:58.873Z,97119.15
2023-04-12T16:43:31.129Z,97110.84
2023-04-12T16:46:07.636Z,97111.66
2023-04-12T16:48:43.049Z,97113.60
2023-04-12T16:51:15.059Z,97116.14
2023-04-12T16:53:47.627Z,97120.79
2023-04-12T16:56:20.030Z,97122.97
2023-04-12T16:58:52.193Z,97121.24
2023-04-12T17:01:24.380Z,97124.75
2023-04-12T17:03:57.220Z,97124.27
2023-04-12T17:06:30.340Z,97131.05
2023-04-12T17:09:03.651Z,97134.18
2023-04-12T17:11:36.244Z,97139.69
2023-04-12T17:14:09.323Z,97140.94
2023-04-12T17:16:41.512Z,97144.36
2023-04-12T17:19:13.657Z,97149.87
2023-04-12T17:21:46.237Z,97150.17
2023-04-12T17:24:18.637Z,97156.38
2023-04-12T17:26:50.801Z,97158.52
2023-04-12T17:29:23.970Z,97163.90
2023-04-12T17:31:56.687Z,97169.16
2023-04-12T17:34:30.056Z,97180.73
2023-04-12T17:37:02.489Z,97186.46
2023-04-12T17:39:34.500Z,97196.88
2023-04-12T17:42:07.176Z,97206.13
2023-04-12T17:44:39.257Z,97216.31
2023-04-12T17:47:11.283Z,97227.16
2023-04-12T17:49:43.959Z,97230.98
2023-04-12T17:52:16.487Z,97231.73
2023-04-12T17:54:48.899Z,97241.69
2023-04-12T17:57:22.378Z,97247.66
2023-04-12T17:59:54.816Z,97252.31
2023-04-12T18:02:27.712Z,97257.81
2023-04-12T18:05:01.018Z,97270.05
2023-04-12T18:07:34.201Z,97274.77
2023-04-12T18:10:07.792Z,97275.25
2023-04-12T18:12:40.958Z,97282.10
2023-04-12T18:15:13.964Z,97292.67
2023-04-12T18:17:46.562Z,97297.36
2023-04-12T18:20:19.391Z,97307.41
2023-04-12T18:22:54.319Z,97312.63
2023-04-12T18:25:27.105Z,97319.75
2023-04-12T18:27:59.549Z,97323.81
2023-04-12T18:30:32.563Z,97328.93
2023-04-12T18:33:05.665Z,97332.53
2023-04-12T18:35:38.702Z,97341.43
2023-04-12T18:38:11.351Z,97337.11
2023-04-12T18:40:52.679Z,97337.36
2023-04-12T18:43:24.883Z,97343.09
2023-04-12T18:45:57.879Z,97348.94
2023-04-12T18:48:30.619Z,97348.08
2023-04-12T18:51:02.853Z,97357.31
2023-04-12T18:53:37.875Z,97349.80
2023-04-12T18:56:14.387Z,97352.15
2023-04-12T19:01:24.774Z,97353.29
2023-04-12T19:04:04.378Z,97352.36
2023-04-12T19:06:37.128Z,97349.55
2023-04-12T19:09:09.617Z,97352.95
2023-04-12T19:11:42.407Z,97359.19
2023-04-12T19:14:14.959Z,97357.95
2023-04-12T19:16:49.596Z,97361.98
2023-04-12T19:19:22.282Z,97365.74
2023-04-12T19:21:57.247Z,97367.79
2023-04-12T19:24:29.441Z,97361.05
2023-04-12T19:27:02.478Z,97358.49
2023-04-12T19:29:34.747Z,97356.19
2023-04-12T19:32:12.232Z,97354.96
2023-04-12T19:34:45.425Z,97348.20
2023-04-12T19:37:17.945Z,97351.52
2023-04-12T19:39:51.645Z,97351.21
2023-04-12T19:42:23.725Z,97351.19
2023-04-12T19:44:58.365Z,97351.52
2023-04-12T19:47:31.100Z,97351.30
2023-04-12T19:50:04.449Z,97353.95
2023-04-12T19:52:36.452Z,97346.14
2023-04-12T19:55:13.579Z,97347.98
2023-04-12T19:57:46.159Z,97352.66
2023-04-12T20:00:20.866Z,97350.64
2023-04-12T20:03:00.692Z,97347.70
2023-04-12T20:05:33.367Z,97344.48
2023-04-12T20:08:05.561Z,97344.23
2023-04-12T20:10:37.680Z,97351.53
2023-04-12T20:13:15.287Z,97350.73
2023-04-12T20:15:47.565Z,97351.70
2023-04-12T20:18:19.535Z,97356.81
2023-04-12T20:20:53.251Z,97358.25
2023-04-12T20:23:25.634Z,97360.73
2023-04-12T20:25:57.529Z,97360.30
2023-04-12T20:28:29.623Z,97357.13
2023-04-12T20:31:01.846Z,97354.05
2023-04-12T20:33:33.840Z,97348.84
2023-04-12T20:36:06.227Z,97348.10
2023-04-12T20:38:38.303Z,97349.16
2023-04-12T20:41:10.942Z,97347.31
2023-04-12T20:43:47.684Z,97345.60
2023-04-12T20:46:25.705Z,97342.44
2023-04-12T20:48:58.491Z,97338.89
2023-04-12T20:51:30.769Z,97339.76
2023-04-12T20:54:03.338Z,97337.29
2023-04-12T20:56:36.291Z,97335.76
2023-04-12T20:59:10.854Z,97331.63
2023-04-12T21:01:46.949Z,97334.49
2023-04-12T21:04:20.266Z,97335.03
2023-04-12T21:06:55.823Z,97329.88
2023-04-12T21:09:27.977Z,97328.31
2023-04-12T21:12:02.785Z,97340.13
2023-04-12T21:14:37.744Z,97337.51
2023-04-12T21:17:10.007Z,97337.81
2023-04-12T21:19:45.209Z,97338.31
2023-04-12T21:22:17.372Z,97332.96
2023-04-12T21:24:50.242Z,97328.33
2023-04-12T21:27:25.246Z,97327.16
2023-04-12T21:29:58.240Z,97319.87
2023-04-12T21:32:32.546Z,97312.39
2023-04-12T21:35:05.731Z,97315.16
2023-04-12T21:37:38.952Z,97308.52
2023-04-12T21:40:12.816Z,97310.67
2023-04-12T21:42:45.415Z,97305.43
2023-04-12T21:45:17.915Z,97298.33
2023-04-12T21:47:52.410Z,97297.77
2023-04-12T21:50:24.693Z,97301.60
2023-04-12T21:52:57.533Z,97300.31
2023-04-12T21:55:32.866Z,97297.88
2023-04-12T21:58:05.376Z,97301.04
2023-04-12T22:00:37.954Z,97292.90
2023-04-12T22:03:10.327Z,97292.23
2023-04-12T22:05:44.563Z,97286.12
2023-04-12T22:08:20.777Z,97295.51
2023-04-12T22:10:54.065Z,97288.40
2023-04-12T22:13:29.252Z,97289.49
2023-04-12T22:16:03.409Z,97289.48
2023-04-12T22:18:35.795Z,97296.06
2023-04-12T22:21:09.853Z,97293.14
2023-04-12T22:23:42.087Z,97289.73
2023-04-12T22:26:18.113Z,97287.73
2023-04-12T22:28:52.822Z,97285.34
2023-04-12T22:31:28.499Z,97286.89
2023-04-12T22:34:01.640Z,97282.21
2023-04-12T22:36:37.516Z,97275.39
2023-04-12T22:39:10.649Z,97274.41
2023-04-12T22:41:49.691Z,97265.16
2023-04-12T22:44:22.179Z,97259.57
2023-04-12T22:46:56.770Z,97252.86
2023-04-12T22:49:30.843Z,97249.30
2023-04-12T22:52:09.062Z,97244.87
2023-04-12T22:54:42.557Z,97245.16
2023-04-12T22:57:14.683Z,97236.45
2023-04-12T22:59:46.780Z,97237.30
2023-04-12T23:02:18.863Z,97236.30
2023-04-12T23:04:52.410Z,97230.39
2023-04-12T23:07:24.806Z,97230.94
2023-04-12T23:09:56.901Z,97229.39
2023-04-12T23:12:29.316Z,97224.73
2023-04-12T23:15:02.302Z,97219.69
2023-04-12T23:17:34.587Z,97221.22
2023-04-12T23:20:10.136Z,97219.41
2023-04-12T23:22:57.231Z,97218.49
2023-04-12T23:25:39.626Z,97215.11
2023-04-12T23:28:14.018Z,97213.91
2023-04-12T23:30:50.382Z,97206.58
2023-04-12T23:33:25.646Z,97201.59
2023-04-12T23:35:58.745Z,97201.48
2023-04-12T23:38:33.990Z,97192.11
2023-04-12T23:41:11.662Z,97188.11
2023-04-12T23:43:43.799Z,97187.35
2023-04-12T23:46:16.202Z,97190.65
2023-04-12T23:48:49.462Z,97186.46
2023-04-12T23:51:22.045Z,97188.52
2023-04-12T23:53:54.492Z,97185.61
2023-04-12T23:56:28.108Z,97179.95
2023-04-12T23:59:02.688Z,97172.81
